createdAt,value
2023-03-17T00:01:37.940Z,6.63
2023-03-17T00:04:05.029Z,6.82
2023-03-17T00:06:33.858Z,4.50
2023-03-17T00:09:00.579Z,6.57
2023-03-17T00:11:27.714Z,5.25
2023-03-17T00:13:54.494Z,8.60
2023-03-17T00:16:23.853Z,8.40
2023-03-17T00:18:51.437Z,8.98
2023-03-17T00:21:23.590Z,6.13
2023-03-17T00:23:51.836Z,7.35
2023-03-17T00:26:19.763Z,6.22
2023-03-17T00:28:46.944Z,8.43
2023-03-17T00:31:16.826Z,5.60
2023-03-17T00:33:46.584Z,7.93
2023-03-17T00:36:19.225Z,7.95
2023-03-17T00:38:46.270Z,7.22
2023-03-17T00:41:13.319Z,12.68
2023-03-17T00:43:40.799Z,6.13
2023-03-17T00:46:16.677Z,6.22
2023-03-17T00:48:44.889Z,6.25
2023-03-17T00:51:12.473Z,7.88
2023-03-17T00:53:39.859Z,6.18
2023-03-17T00:56:13.481Z,7.05
2023-03-17T00:58:40.199Z,7.07
2023-03-17T01:01:06.843Z,10.45
2023-03-17T01:03:33.430Z,6.72
2023-03-17T01:06:00.192Z,8.40
2023-03-17T01:08:27.481Z,6.35
2023-03-17T01:10:54.811Z,7.63
2023-03-17T01:13:21.365Z,7.18
2023-03-17T01:15:49.588Z,8.45
2023-03-17T01:18:17.944Z,9.60
2023-03-17T01:20:45.595Z,6.32
2023-03-17T01:23:12.901Z,6.85
2023-03-17T01:25:41.457Z,6.53
2023-03-17T01:28:10.770Z,7.43
2023-03-17T01:30:40.324Z,8.40
2023-03-17T01:33:10.595Z,7.20
2023-03-17T01:35:38.385Z,8.90
2023-03-17T01:38:05.913Z,6.93
2023-03-17T01:40:38.948Z,5.80
2023-03-17T01:43:08.400Z,9.27
2023-03-17T01:46:12.866Z,8.80
2023-03-17T01:48:51.476Z,6.00
2023-03-17T01:51:23.917Z,6.40
2023-03-17T01:53:52.919Z,6.70
2023-03-17T01:56:19.878Z,5.88
2023-03-17T01:58:50.664Z,7.40
2023-03-17T02:01:17.907Z,9.88
2023-03-17T02:03:45.195Z,10.35
2023-03-17T02:06:12.897Z,7.13
2023-03-17T02:08:39.449Z,6.22
2023-03-17T02:11:06.160Z,9.93
2023-03-17T02:13:33.337Z,8.50
2023-03-17T02:16:00.490Z,8.88
2023-03-17T02:18:27.232Z,9.50
2023-03-17T02:20:53.712Z,10.20
2023-03-17T02:23:24.842Z,7.05
2023-03-17T02:25:52.894Z,7.60
2023-03-17T02:28:23.687Z,8.43
2023-03-17T02:30:50.311Z,9.88
2023-03-17T02:33:17.780Z,10.07
2023-03-17T02:35:44.571Z,9.02
2023-03-17T02:38:11.185Z,8.43
2023-03-17T02:40:37.793Z,9.07
2023-03-17T02:43:05.768Z,8.35
2023-03-17T02:45:32.342Z,10.10
2023-03-17T02:47:59.425Z,7.50
2023-03-17T02:50:28.898Z,8.43
2023-03-17T02:52:56.121Z,11.25
2023-03-17T02:55:22.699Z,12.45
2023-03-17T02:57:49.249Z,9.30
2023-03-17T03:00:16.024Z,9.95
2023-03-17T03:02:43.070Z,10.85
2023-03-17T03:05:10.815Z,7.40
2023-03-17T03:07:37.531Z,12.15
2023-03-17T03:10:05.564Z,10.88
2023-03-17T03:12:32.945Z,9.73
2023-03-17T03:14:59.576Z,9.30
2023-03-17T03:17:26.412Z,9.98
2023-03-17T03:19:52.996Z,8.68
2023-03-17T03:22:19.542Z,9.50
2023-03-17T03:24:46.176Z,8.90
2023-03-17T03:27:12.741Z,9.00
2023-03-17T03:29:39.356Z,9.00
2023-03-17T03:32:06.612Z,14.07
2023-03-17T03:34:33.250Z,8.73
2023-03-17T03:36:59.869Z,9.52
2023-03-17T03:39:26.624Z,8.45
2023-03-17T03:41:55.586Z,10.05
2023-03-17T03:44:22.131Z,9.57
2023-03-17T03:46:48.758Z,8.43
2023-03-17T03:49:15.637Z,6.50
2023-03-17T03:51:42.231Z,7.53
2023-03-17T03:54:08.796Z,9.57
2023-03-17T03:56:35.360Z,9.30
2023-03-17T03:59:02.049Z,9.95
2023-03-17T04:01:28.855Z,11.63
2023-03-17T04:03:55.421Z,11.07
2023-03-17T04:06:21.974Z,8.07
2023-03-17T04:08:48.509Z,7.88
2023-03-17T04:11:15.066Z,9.93
2023-03-17T04:13:41.636Z,10.00
2023-03-17T04:16:08.301Z,9.95
2023-03-17T04:18:35.717Z,9.98
2023-03-17T04:21:02.330Z,9.05
2023-03-17T04:23:29.006Z,7.85
2023-03-17T04:25:55.855Z,10.82
2023-03-17T04:28:22.632Z,9.23
2023-03-17T04:30:49.170Z,9.85
2023-03-17T04:33:15.731Z,9.80
2023-03-17T04:35:42.383Z,8.35
2023-03-17T04:38:10.470Z,8.10
2023-03-17T04:40:37.018Z,8.85
2023-03-17T04:43:03.697Z,9.30
2023-03-17T04:45:30.534Z,9.40
2023-03-17T04:47:57.118Z,8.10
2023-03-17T04:50:23.653Z,6.93
2023-03-17T04:52:50.206Z,8.50
2023-03-17T04:55:17.143Z,10.30
2023-03-17T04:57:44.412Z,8.88
2023-03-17T05:00:12.768Z,10.45
2023-03-17T05:02:39.430Z,7.25
2023-03-17T05:05:06.028Z,8.85
2023-03-17T05:07:34.132Z,9.90
2023-03-17T05:10:00.906Z,10.93
2023-03-17T05:12:27.875Z,9.23
2023-03-17T05:14:54.423Z,8.52
2023-03-17T05:17:21.479Z,9.88
2023-03-17T05:19:48.270Z,10.25
2023-03-17T05:22:14.868Z,7.63
2023-03-17T05:24:41.426Z,8.43
2023-03-17T05:27:08.008Z,9.05
2023-03-17T05:29:34.646Z,9.10
2023-03-17T05:32:01.187Z,7.78
2023-03-17T05:34:27.768Z,8.40
2023-03-17T05:36:54.468Z,7.32
2023-03-17T05:39:21.058Z,8.35
2023-03-17T05:41:48.110Z,10.73
2023-03-17T05:44:14.688Z,8.98
2023-03-17T05:46:41.251Z,8.93
2023-03-17T05:49:07.981Z,8.15
2023-03-17T05:51:36.813Z,10.75
2023-03-17T05:54:03.706Z,7.32
2023-03-17T05:56:33.792Z,9.30
2023-03-17T05:59:01.801Z,9.60
2023-03-17T06:01:28.745Z,6.78
2023-03-17T06:03:55.347Z,9.00
2023-03-17T06:06:21.889Z,9.75
2023-03-17T06:08:48.455Z,8.70
2023-03-17T06:11:15.004Z,8.50
2023-03-17T06:13:41.646Z,9.90
2023-03-17T06:16:08.445Z,8.00
2023-03-17T06:18:35.834Z,8.88
2023-03-17T06:21:02.417Z,8.93
2023-03-17T06:23:28.958Z,6.35
2023-03-17T06:25:55.803Z,8.02
2023-03-17T06:28:22.419Z,7.68
2023-03-17T06:30:49.011Z,7.47
2023-03-17T06:33:16.030Z,6.15
2023-03-17T06:35:42.710Z,8.55
2023-03-17T06:38:09.274Z,7.13
2023-03-17T06:40:36.137Z,10.65
2023-03-17T06:43:03.101Z,8.60
2023-03-17T06:45:30.464Z,7.55
2023-03-17T06:47:57.145Z,8.45
2023-03-17T06:50:23.763Z,11.95
2023-03-17T06:52:50.410Z,6.40
2023-03-17T06:55:17.622Z,7.82
2023-03-17T06:57:44.219Z,6.55
2023-03-17T07:00:14.190Z,7.63
2023-03-17T07:02:43.175Z,8.98
2023-03-17T07:05:09.895Z,10.18
2023-03-17T07:07:36.789Z,8.27
2023-03-17T07:10:03.975Z,8.50
2023-03-17T07:12:30.539Z,7.15
2023-03-17T07:14:58.073Z,6.07
2023-03-17T07:17:25.333Z,9.13
2023-03-17T07:19:52.502Z,8.63
2023-03-17T07:22:19.071Z,7.10
2023-03-17T07:24:47.037Z,6.80
2023-03-17T07:27:14.476Z,7.28
2023-03-17T07:29:41.565Z,7.45
2023-03-17T07:32:09.441Z,4.85
2023-03-17T07:34:36.020Z,10.18
2023-03-17T07:37:03.068Z,11.23
2023-03-17T07:39:29.734Z,6.70
2023-03-17T07:41:56.332Z,7.82
2023-03-17T07:44:23.586Z,9.90
2023-03-17T07:46:50.911Z,11.52
2023-03-17T07:49:22.755Z,7.75
2023-03-17T07:51:54.273Z,6.65
2023-03-17T07:54:21.271Z,7.30
2023-03-17T07:56:47.922Z,7.05
2023-03-17T07:59:15.376Z,8.30
2023-03-17T08:01:41.971Z,6.03
2023-03-17T08:04:10.859Z,7.50
2023-03-17T08:06:38.658Z,6.10
2023-03-17T08:09:05.181Z,9.93
2023-03-17T08:11:32.165Z,5.35
2023-03-17T08:14:00.020Z,6.30
2023-03-17T08:16:26.628Z,9.60
2023-03-17T08:18:53.353Z,7.40
2023-03-17T08:21:20.328Z,6.90
2023-03-17T08:23:47.280Z,8.32
2023-03-17T08:26:14.420Z,7.82
2023-03-17T08:28:41.143Z,7.88
2023-03-17T08:31:12.207Z,9.40
2023-03-17T08:33:41.168Z,8.27
2023-03-17T08:36:09.528Z,7.93
2023-03-17T08:38:40.437Z,8.25
2023-03-17T08:41:09.398Z,8.05
2023-03-17T08:43:36.978Z,6.53
2023-03-17T08:46:07.251Z,8.00
2023-03-17T08:48:35.461Z,10.35
2023-03-17T08:51:02.512Z,6.82
2023-03-17T08:53:29.921Z,8.50
2023-03-17T08:55:57.330Z,10.15
2023-03-17T08:58:24.444Z,9.10
2023-03-17T09:00:52.511Z,7.07
2023-03-17T09:03:19.064Z,6.75
2023-03-17T09:05:45.671Z,7.50
2023-03-17T09:08:13.182Z,6.63
2023-03-17T09:10:39.841Z,7.65
2023-03-17T09:13:06.452Z,8.38
2023-03-17T09:15:38.038Z,10.40
2023-03-17T09:18:05.879Z,7.60
2023-03-17T09:20:33.196Z,9.93
2023-03-17T09:23:00.013Z,7.50
2023-03-17T09:25:27.350Z,9.07
2023-03-17T09:27:53.970Z,7.82
2023-03-17T09:30:20.566Z,6.75
2023-03-17T09:32:47.276Z,6.00
2023-03-17T09:35:14.020Z,6.40
2023-03-17T09:37:41.020Z,8.77
2023-03-17T09:40:09.294Z,8.70
2023-03-17T09:43:08.173Z,10.88
2023-03-17T09:45:42.950Z,7.35
2023-03-17T09:48:28.287Z,7.55
2023-03-17T09:51:02.972Z,7.93
2023-03-17T09:53:34.631Z,10.77
2023-03-17T09:56:07.156Z,8.23
2023-03-17T09:58:35.154Z,6.32
2023-03-17T10:01:03.426Z,6.03
2023-03-17T10:03:30.094Z,6.15
2023-03-17T10:06:16.368Z,5.88
2023-03-17T10:08:58.851Z,6.32
2023-03-17T10:11:35.473Z,6.35
2023-03-17T10:14:13.858Z,5.47
2023-03-17T10:16:48.475Z,8.60
2023-03-17T10:19:29.348Z,7.05
2023-03-17T10:22:05.642Z,7.80
2023-03-17T10:24:33.076Z,6.65
2023-03-17T10:27:04.918Z,5.88
2023-03-17T10:29:32.529Z,5.82
2023-03-17T10:31:59.381Z,6.65
2023-03-17T10:34:29.699Z,7.82
2023-03-17T10:37:13.955Z,6.72
2023-03-17T10:39:54.632Z,5.85
2023-03-17T10:42:26.802Z,4.63
2023-03-17T10:45:15.226Z,7.00
2023-03-17T10:47:45.814Z,6.63
2023-03-17T10:50:15.573Z,7.90
2023-03-17T10:52:42.646Z,6.82
2023-03-17T10:55:14.354Z,5.25
2023-03-17T10:58:06.344Z,5.85
2023-03-17T11:00:38.512Z,5.68
2023-03-17T11:03:34.147Z,5.93
2023-03-17T11:06:04.112Z,5.35
2023-03-17T11:08:32.518Z,8.88
2023-03-17T11:10:59.134Z,5.30
2023-03-17T11:13:30.193Z,8.57
2023-03-17T11:16:22.460Z,7.85
2023-03-17T11:18:51.604Z,6.70
2023-03-17T11:21:23.419Z,7.18
2023-03-17T11:23:52.823Z,7.05
2023-03-17T11:26:38.143Z,5.07
2023-03-17T11:29:26.445Z,6.15
2023-03-17T11:31:59.457Z,9.02
2023-03-17T11:34:35.023Z,5.97
2023-03-17T11:37:21.758Z,5.80
2023-03-17T11:40:10.712Z,7.32
2023-03-17T11:43:16.202Z,6.85
2023-03-17T11:45:48.882Z,5.40
2023-03-17T11:48:30.529Z,4.95
2023-03-17T11:51:03.806Z,6.68
2023-03-17T11:53:49.888Z,6.30
2023-03-17T11:56:37.301Z,8.85
2023-03-17T11:59:06.664Z,5.55
2023-03-17T12:02:03.207Z,5.47
2023-03-17T12:04:34.484Z,5.65
2023-03-17T12:07:09.234Z,5.13
2023-03-17T12:09:40.911Z,7.38
2023-03-17T12:12:08.018Z,5.43
2023-03-17T12:14:49.170Z,5.18
2023-03-17T12:17:26.879Z,5.20
2023-03-17T12:19:58.640Z,4.97
2023-03-17T12:22:30.626Z,6.10
2023-03-17T12:25:11.158Z,6.57
2023-03-17T12:27:54.472Z,6.20
2023-03-17T12:30:34.543Z,6.82
2023-03-17T12:33:11.023Z,5.72
2023-03-17T12:35:40.966Z,4.20
2023-03-17T12:38:12.131Z,5.10
2023-03-17T12:40:54.650Z,7.55
2023-03-17T12:43:43.032Z,6.38
2023-03-17T12:46:43.700Z,7.18
2023-03-17T12:49:31.797Z,6.22
2023-03-17T12:52:12.434Z,4.80
2023-03-17T12:54:39.663Z,5.80
2023-03-17T12:57:17.512Z,4.72
2023-03-17T12:59:46.188Z,6.70
2023-03-17T13:02:23.943Z,8.38
2023-03-17T13:05:00.700Z,6.22
2023-03-17T13:07:33.465Z,7.82
2023-03-17T13:10:02.956Z,6.00
2023-03-17T13:12:44.679Z,5.32
2023-03-17T13:15:28.281Z,6.03
2023-03-17T13:18:15.415Z,8.07
2023-03-17T13:20:52.713Z,5.72
2023-03-17T13:23:23.606Z,6.75
2023-03-17T13:25:53.702Z,4.63
2023-03-17T13:28:27.135Z,6.78
2023-03-17T13:31:08.854Z,6.07
2023-03-17T13:33:36.313Z,4.72
2023-03-17T13:36:09.472Z,4.93
2023-03-17T13:38:43.670Z,6.38
2023-03-17T13:41:18.696Z,5.22
2023-03-17T13:44:00.689Z,4.28
2023-03-17T13:46:34.124Z,4.72
2023-03-17T13:49:21.336Z,5.35
2023-03-17T13:52:11.632Z,5.82
2023-03-17T13:54:47.458Z,6.80
2023-03-17T13:57:25.696Z,5.00
2023-03-17T13:59:56.344Z,5.72
2023-03-17T14:02:25.063Z,4.45
2023-03-17T14:04:54.871Z,3.83
2023-03-17T14:07:24.160Z,4.68
2023-03-17T14:09:53.459Z,8.20
2023-03-17T14:12:25.208Z,4.38
2023-03-17T14:15:07.944Z,8.23
2023-03-17T14:17:45.060Z,4.28
2023-03-17T14:20:18.568Z,4.07
2023-03-17T14:22:47.083Z,4.47
2023-03-17T14:25:24.492Z,9.02
2023-03-17T14:27:57.134Z,4.93
2023-03-17T14:30:26.616Z,5.22
2023-03-17T14:33:03.971Z,4.75
2023-03-17T14:35:32.977Z,5.43
2023-03-17T14:38:00.900Z,4.22
2023-03-17T14:40:30.168Z,5.57
2023-03-17T14:42:57.585Z,4.32
2023-03-17T14:45:32.856Z,7.78
2023-03-17T14:48:01.815Z,4.05
2023-03-17T14:50:31.265Z,4.93
2023-03-17T14:52:59.518Z,9.48
2023-03-17T14:55:43.232Z,4.28
2023-03-17T14:58:20.328Z,3.70
2023-03-17T15:00:54.825Z,4.43
2023-03-17T15:03:23.841Z,4.47
2023-03-17T15:05:50.618Z,3.40
2023-03-17T15:08:41.056Z,6.82
2023-03-17T15:11:08.418Z,7.65
2023-03-17T15:13:37.299Z,5.50
2023-03-17T15:16:16.939Z,3.80
2023-03-17T15:18:43.925Z,3.65
2023-03-17T15:21:43.120Z,4.22
2023-03-17T15:24:29.757Z,3.95
2023-03-17T15:27:20.389Z,5.70
2023-03-17T15:29:48.324Z,4.47
2023-03-17T15:32:26.122Z,4.15
2023-03-17T15:34:56.633Z,4.55
2023-03-17T15:37:26.017Z,5.28
2023-03-17T15:39:53.775Z,6.95
2023-03-17T15:42:22.434Z,5.28
2023-03-17T15:44:49.020Z,6.28
2023-03-17T15:47:17.267Z,5.57
2023-03-17T15:49:44.800Z,5.10
2023-03-17T15:52:16.380Z,3.92
2023-03-17T15:54:43.721Z,3.38
2023-03-17T15:57:13.522Z,4.45
2023-03-17T15:59:40.936Z,5.90
2023-03-17T16:02:22.222Z,3.88
2023-03-17T16:04:48.999Z,3.75
2023-03-17T16:07:15.567Z,4.50
2023-03-17T16:09:45.759Z,6.97
2023-03-17T16:12:13.026Z,6.57
2023-03-17T16:14:39.840Z,6.78
2023-03-17T16:17:07.155Z,4.07
2023-03-17T16:19:33.918Z,4.32
2023-03-17T16:22:00.884Z,3.75
2023-03-17T16:24:28.234Z,5.25
2023-03-17T16:26:56.091Z,4.95
2023-03-17T16:29:22.882Z,4.55
2023-03-17T16:31:50.961Z,5.25
2023-03-17T16:34:19.764Z,4.10
2023-03-17T16:36:46.334Z,5.35
2023-03-17T16:39:22.530Z,4.00
2023-03-17T16:41:50.117Z,5.05
2023-03-17T16:44:18.892Z,4.25
2023-03-17T16:46:45.777Z,5.22
2023-03-17T16:49:14.819Z,3.60
2023-03-17T16:51:41.845Z,4.80
2023-03-17T16:54:08.772Z,3.85
2023-03-17T16:56:35.748Z,6.88
2023-03-17T16:59:02.493Z,5.10
2023-03-17T17:01:29.662Z,4.38
2023-03-17T17:03:56.332Z,6.72
2023-03-17T17:06:23.593Z,5.68
2023-03-17T17:08:50.950Z,3.80
2023-03-17T17:11:18.878Z,4.90
2023-03-17T17:13:47.698Z,5.30
2023-03-17T17:16:24.899Z,4.43
2023-03-17T17:18:51.694Z,5.20
2023-03-17T17:21:18.252Z,7.75
2023-03-17T17:23:44.879Z,6.22
2023-03-17T17:26:11.469Z,4.80
2023-03-17T17:28:40.036Z,5.38
2023-03-17T17:31:08.432Z,4.47
2023-03-17T17:33:35.913Z,4.03
2023-03-17T17:36:04.797Z,4.90
2023-03-17T17:38:31.488Z,4.00
2023-03-17T17:40:59.995Z,4.20
2023-03-17T17:43:27.226Z,5.03
2023-03-17T17:45:53.807Z,4.03
2023-03-17T17:48:25.307Z,3.85
2023-03-17T17:50:53.423Z,5.47
2023-03-17T17:53:20.067Z,5.65
2023-03-17T17:55:48.398Z,7.65
2023-03-17T17:58:16.462Z,6.88
2023-03-17T18:00:43.429Z,5.35
2023-03-17T18:03:10.103Z,5.88
2023-03-17T18:05:36.970Z,5.20
2023-03-17T18:08:04.069Z,7.90
2023-03-17T18:10:31.057Z,8.02
2023-03-17T18:12:58.016Z,6.03
2023-03-17T18:15:25.886Z,7.03
2023-03-17T18:17:53.067Z,6.28
2023-03-17T18:20:21.848Z,7.28
2023-03-17T18:22:49.651Z,4.90
2023-03-17T18:25:16.589Z,7.55
2023-03-17T18:27:43.613Z,7.93
2023-03-17T18:30:13.511Z,9.52
2023-03-17T18:32:41.117Z,5.13
2023-03-17T18:35:10.358Z,6.22
2023-03-17T18:37:37.209Z,5.95
2023-03-17T18:40:14.276Z,8.27
2023-03-17T18:42:43.227Z,7.95
2023-03-17T18:45:11.674Z,7.78
2023-03-17T18:47:39.143Z,6.45
2023-03-17T18:50:08.136Z,7.57
2023-03-17T18:52:37.037Z,6.68
2023-03-17T18:55:04.459Z,6.88
2023-03-17T18:57:31.292Z,8.50
2023-03-17T18:59:58.438Z,9.55
2023-03-17T19:02:25.083Z,7.88
2023-03-17T19:04:51.716Z,4.75
2023-03-17T19:07:18.631Z,6.05
2023-03-17T19:09:45.349Z,8.32
2023-03-17T19:12:12.431Z,7.78
2023-03-17T19:14:39.948Z,10.27
2023-03-17T19:17:07.618Z,7.50
2023-03-17T19:19:35.419Z,6.80
2023-03-17T19:22:02.166Z,5.85
2023-03-17T19:24:29.217Z,8.75
2023-03-17T19:26:55.926Z,9.27
2023-03-17T19:29:22.505Z,8.10
2023-03-17T19:31:49.071Z,8.07
2023-03-17T19:34:15.620Z,8.73
2023-03-17T19:36:43.799Z,8.55
2023-03-17T19:39:10.945Z,7.50
2023-03-17T19:41:37.548Z,10.55
2023-03-17T19:44:06.832Z,10.52
2023-03-17T19:46:34.714Z,7.47
2023-03-17T19:49:01.688Z,7.47
2023-03-17T19:51:28.364Z,11.70
2023-03-17T19:53:55.202Z,8.60
2023-03-17T19:56:23.134Z,7.95
2023-03-17T19:58:49.862Z,8.10
2023-03-17T20:01:17.221Z,10.20
2023-03-17T20:03:43.904Z,9.43
2023-03-17T20:06:12.240Z,12.20
2023-03-17T20:08:39.575Z,10.02
2023-03-17T20:11:06.730Z,11.15
2023-03-17T20:13:34.845Z,10.10
2023-03-17T20:16:01.983Z,6.95
2023-03-17T20:18:29.111Z,9.95
2023-03-17T20:20:57.553Z,8.20
2023-03-17T20:23:25.077Z,8.88
2023-03-17T20:25:52.682Z,8.13
2023-03-17T20:28:21.486Z,12.23
2023-03-17T20:30:49.359Z,8.80
2023-03-17T20:33:16.837Z,10.35
2023-03-17T20:35:46.829Z,8.90
2023-03-17T20:38:14.741Z,12.90
2023-03-17T20:40:42.125Z,8.82
2023-03-17T20:43:09.477Z,8.27
2023-03-17T20:45:37.041Z,9.57
2023-03-17T20:48:06.107Z,10.13
2023-03-17T20:50:33.554Z,12.48
2023-03-17T20:53:00.482Z,11.82
2023-03-17T20:55:27.449Z,10.68
2023-03-17T20:57:54.059Z,10.60
2023-03-17T21:00:21.309Z,12.82
2023-03-17T21:02:51.110Z,10.07
2023-03-17T21:05:23.165Z,11.48
2023-03-17T21:07:49.756Z,12.43
2023-03-17T21:10:16.767Z,10.60
2023-03-17T21:12:43.732Z,9.50
2023-03-17T21:15:11.047Z,10.25
2023-03-17T21:17:40.492Z,10.00
2023-03-17T21:20:09.597Z,10.38
2023-03-17T21:22:37.037Z,11.18
2023-03-17T21:25:04.771Z,10.65
2023-03-17T21:27:31.560Z,12.50
2023-03-17T21:29:58.133Z,10.70
2023-03-17T21:32:24.793Z,12.20
2023-03-17T21:34:51.710Z,11.98
2023-03-17T21:37:18.864Z,14.55
2023-03-17T21:39:45.939Z,11.32
2023-03-17T21:42:12.865Z,9.60
2023-03-17T21:44:39.830Z,11.05
2023-03-17T21:47:06.432Z,12.13
2023-03-17T21:49:32.998Z,11.68
2023-03-17T21:52:00.589Z,11.38
2023-03-17T21:54:28.469Z,11.23
2023-03-17T21:56:55.045Z,11.88
2023-03-17T21:59:21.618Z,11.32
2023-03-17T22:01:52.040Z,10.05
2023-03-17T22:04:18.964Z,11.63
2023-03-17T22:06:45.544Z,11.95
2023-03-17T22:09:13.055Z,11.82
2023-03-17T22:11:39.595Z,12.85
2023-03-17T22:14:06.568Z,13.82
2023-03-17T22:16:34.248Z,11.00
2023-03-17T22:19:01.548Z,11.15
2023-03-17T22:21:29.883Z,10.27
2023-03-17T22:23:56.446Z,11.05
2023-03-17T22:26:23.008Z,13.43
2023-03-17T22:28:50.300Z,12.13
2023-03-17T22:31:23.108Z,12.27
2023-03-17T22:33:52.392Z,10.07
2023-03-17T22:36:19.577Z,10.57
2023-03-17T22:38:46.373Z,10.35
2023-03-17T22:41:15.137Z,11.63
2023-03-17T22:43:42.349Z,13.20
2023-03-17T22:46:09.712Z,13.30
2023-03-17T22:48:36.714Z,13.38
2023-03-17T22:51:05.876Z,12.70
2023-03-17T22:53:32.982Z,11.10
2023-03-17T22:56:00.244Z,12.95
2023-03-17T22:58:27.434Z,11.27
2023-03-17T23:00:55.368Z,12.80
2023-03-17T23:03:23.042Z,15.18
2023-03-17T23:05:52.024Z,13.02
2023-03-17T23:08:19.635Z,12.32
2023-03-17T23:10:48.801Z,13.70
2023-03-17T23:13:16.269Z,10.98
2023-03-17T23:15:43.022Z,10.15
2023-03-17T23:18:10.379Z,14.50
2023-03-17T23:20:39.946Z,16.88
2023-03-17T23:23:07.493Z,12.82
2023-03-17T23:25:34.947Z,11.18
2023-03-17T23:28:02.320Z,11.23
2023-03-17T23:30:29.283Z,14.82
2023-03-17T23:32:56.001Z,13.50
2023-03-17T23:35:23.273Z,12.50
2023-03-17T23:37:49.872Z,13.77
2023-03-17T23:40:17.396Z,11.20
2023-03-17T23:42:44.745Z,12.88
2023-03-17T23:45:11.916Z,13.32
2023-03-17T23:47:38.676Z,10.68
2023-03-17T23:50:05.652Z,12.27
2023-03-17T23:52:32.765Z,11.43
2023-03-17T23:55:01.084Z,13.73
2023-03-17T23:57:27.819Z,15.10
2023-03-17T23:59:54.404Z,10.73
